createdAt,value
2023-01-23T00:01:26.954Z,43.78
2023-01-23T00:03:55.225Z,43.15
2023-01-23T00:06:23.060Z,41.20
2023-01-23T00:08:49.963Z,49.88
2023-01-23T00:11:19.523Z,47.60
2023-01-23T00:13:46.288Z,44.55
2023-01-23T00:16:18.246Z,47.88
2023-01-23T00:18:45.847Z,43.55
2023-01-23T00:21:15.696Z,44.95
2023-01-23T00:23:48.131Z,47.13
2023-01-23T00:26:17.682Z,54.78
2023-01-23T00:28:45.664Z,50.78
2023-01-23T00:31:24.954Z,47.17
2023-01-23T00:34:00.047Z,52.92
2023-01-23T00:36:32.874Z,53.08
2023-01-23T00:39:00.109Z,52.33
2023-01-23T00:41:27.193Z,46.63
2023-01-23T00:43:54.264Z,49.33
2023-01-23T00:46:21.741Z,51.10
2023-01-23T00:48:49.919Z,45.00
2023-01-23T00:51:17.124Z,40.28
2023-01-23T00:53:44.649Z,45.08
2023-01-23T00:56:11.560Z,46.83
2023-01-23T00:58:38.259Z,47.80
2023-01-23T01:01:05.155Z,46.35
2023-01-23T01:03:31.861Z,48.00
2023-01-23T01:05:58.659Z,42.85
2023-01-23T01:08:25.453Z,48.08
2023-01-23T01:10:52.374Z,48.83
2023-01-23T01:13:21.450Z,48.35
2023-01-23T01:15:50.038Z,51.90
2023-01-23T01:18:20.240Z,50.45
2023-01-23T01:20:47.472Z,48.28
2023-01-23T01:23:15.079Z,49.60
2023-01-23T01:25:42.012Z,54.10
2023-01-23T01:28:08.812Z,50.83
2023-01-23T01:30:36.859Z,50.22
2023-01-23T01:33:04.262Z,52.97
2023-01-23T01:35:30.993Z,54.33
2023-01-23T01:37:58.371Z,56.80
2023-01-23T01:40:28.921Z,51.33
2023-01-23T01:42:59.004Z,54.70
2023-01-23T01:46:02.883Z,53.00
2023-01-23T01:48:55.411Z,52.88
2023-01-23T01:51:32.907Z,56.28
2023-01-23T01:54:14.900Z,54.03
2023-01-23T01:56:55.040Z,55.15
2023-01-23T01:59:24.202Z,55.13
2023-01-23T02:01:56.023Z,53.40
2023-01-23T02:04:23.048Z,52.47
2023-01-23T02:06:52.101Z,50.20
2023-01-23T02:09:27.795Z,54.67
2023-01-23T02:11:54.580Z,49.60
2023-01-23T02:14:24.408Z,54.20
2023-01-23T02:16:52.796Z,52.45
2023-01-23T02:19:34.821Z,53.97
2023-01-23T02:22:23.820Z,46.35
2023-01-23T02:25:09.221Z,51.45
2023-01-23T02:27:36.091Z,48.72
2023-01-23T02:30:03.921Z,45.20
2023-01-23T02:32:30.688Z,49.03
2023-01-23T02:35:00.868Z,46.33
2023-01-23T02:37:31.856Z,42.25
2023-01-23T02:39:58.732Z,43.10
2023-01-23T02:42:25.596Z,39.75
2023-01-23T02:44:53.845Z,47.65
2023-01-23T02:47:20.594Z,48.35
2023-01-23T02:49:47.380Z,45.90
2023-01-23T02:52:14.185Z,45.03
2023-01-23T02:54:40.887Z,41.13
2023-01-23T02:57:08.011Z,44.20
2023-01-23T02:59:53.333Z,42.05
2023-01-23T03:02:24.251Z,40.42
2023-01-23T03:04:51.024Z,42.90
2023-01-23T03:07:18.186Z,43.15
2023-01-23T03:09:47.980Z,41.83
2023-01-23T03:12:15.923Z,45.20
2023-01-23T03:14:42.782Z,45.65
2023-01-23T03:17:11.093Z,45.45
2023-01-23T03:19:39.063Z,43.65
2023-01-23T03:22:06.180Z,42.85
2023-01-23T03:24:34.429Z,41.35
2023-01-23T03:27:01.397Z,43.90
2023-01-23T03:29:46.922Z,43.08
2023-01-23T03:32:15.132Z,42.38
2023-01-23T03:34:42.647Z,42.35
2023-01-23T03:37:11.906Z,46.58
2023-01-23T03:39:57.411Z,41.78
2023-01-23T03:42:24.111Z,43.65
2023-01-23T03:44:53.077Z,39.22
2023-01-23T03:47:20.836Z,38.65
2023-01-23T03:49:47.906Z,39.83
2023-01-23T03:52:14.627Z,42.15
2023-01-23T03:54:42.240Z,40.47
2023-01-23T03:57:09.232Z,41.10
2023-01-23T03:59:36.088Z,42.47
2023-01-23T04:02:04.966Z,42.08
2023-01-23T04:04:35.577Z,37.95
2023-01-23T04:09:30.328Z,38.80
2023-01-23T04:11:59.185Z,44.30
2023-01-23T04:14:27.749Z,46.88
2023-01-23T04:16:54.576Z,41.28
2023-01-23T04:19:21.710Z,44.13
2023-01-23T04:21:49.080Z,41.08
2023-01-23T04:24:18.348Z,43.80
2023-01-23T04:26:45.651Z,43.92
2023-01-23T04:29:12.696Z,41.53
2023-01-23T04:31:39.910Z,43.83
2023-01-23T04:34:06.610Z,37.90
2023-01-23T04:36:33.639Z,41.67
2023-01-23T04:39:00.515Z,43.08
2023-01-23T04:41:28.808Z,38.38
2023-01-23T04:43:55.566Z,42.35
2023-01-23T04:46:22.424Z,41.83
2023-01-23T04:48:49.275Z,41.00
2023-01-23T04:51:16.116Z,39.83
2023-01-23T04:53:42.972Z,41.17
2023-01-23T04:56:09.772Z,39.75
2023-01-23T04:58:36.451Z,37.95
2023-01-23T05:01:05.399Z,43.72
2023-01-23T05:03:33.112Z,40.50
2023-01-23T05:05:59.800Z,39.42
2023-01-23T05:08:26.537Z,41.70
2023-01-23T05:10:53.348Z,39.67
2023-01-23T05:13:20.035Z,38.58
2023-01-23T05:15:46.736Z,39.70
2023-01-23T05:18:13.539Z,41.03
2023-01-23T05:20:40.205Z,43.88
2023-01-23T05:23:06.971Z,40.67
2023-01-23T05:25:33.819Z,42.72
2023-01-23T05:28:00.636Z,45.90
2023-01-23T05:30:27.459Z,43.33
2023-01-23T05:32:54.168Z,44.92
2023-01-23T05:35:22.415Z,45.83
2023-01-23T05:37:53.234Z,43.88
2023-01-23T05:40:21.136Z,40.58
2023-01-23T05:42:48.763Z,41.80
2023-01-23T05:45:16.233Z,43.45
2023-01-23T05:47:43.555Z,42.63
2023-01-23T05:50:15.872Z,44.65
2023-01-23T05:52:42.731Z,43.08
2023-01-23T05:55:09.576Z,40.22
2023-01-23T05:57:36.558Z,39.83
2023-01-23T06:00:05.593Z,39.65
2023-01-23T06:02:33.514Z,47.03
2023-01-23T06:05:00.326Z,41.38
2023-01-23T06:07:27.188Z,42.15
2023-01-23T06:09:54.045Z,43.35
2023-01-23T06:12:26.939Z,39.22
2023-01-23T06:19:21.241Z,43.20
2023-01-23T06:21:47.927Z,50.00
2023-01-23T06:24:14.596Z,50.55
2023-01-23T06:26:41.445Z,45.72
2023-01-23T06:29:08.161Z,42.08
2023-01-23T06:31:35.136Z,43.17
2023-01-23T06:34:02.127Z,38.97
2023-01-23T06:36:28.921Z,42.65
2023-01-23T06:38:55.683Z,41.05
2023-01-23T06:41:24.442Z,41.25
2023-01-23T06:43:51.225Z,40.83
2023-01-23T06:46:17.956Z,43.53
2023-01-23T06:48:44.758Z,42.70
2023-01-23T06:51:11.926Z,43.38
2023-01-23T06:53:38.745Z,48.40
2023-01-23T06:56:07.774Z,45.55
2023-01-23T06:58:35.113Z,38.55
2023-01-23T07:01:12.735Z,36.22
2023-01-23T07:03:39.421Z,36.85
2023-01-23T07:06:07.139Z,35.80
2023-01-23T07:08:34.947Z,39.50
2023-01-23T07:11:02.489Z,36.70
2023-01-23T07:13:29.669Z,37.55
2023-01-23T07:15:56.864Z,35.53
2023-01-23T07:18:25.147Z,36.42
2023-01-23T07:20:51.852Z,37.97
2023-01-23T07:23:18.621Z,37.70
2023-01-23T07:25:45.340Z,37.17
2023-01-23T07:28:12.399Z,37.65
2023-01-23T07:30:39.326Z,39.65
2023-01-23T07:33:06.616Z,38.20
2023-01-23T07:35:33.645Z,40.05
2023-01-23T07:38:00.306Z,39.10
2023-01-23T07:40:27.021Z,39.25
2023-01-23T07:42:53.821Z,38.90
2023-01-23T07:45:20.706Z,36.85
2023-01-23T07:47:47.630Z,38.85
2023-01-23T07:50:14.413Z,34.95
2023-01-23T07:52:41.260Z,35.83
2023-01-23T07:55:08.321Z,40.40
2023-01-23T07:57:35.077Z,41.75
2023-01-23T08:00:02.111Z,38.72
2023-01-23T08:02:28.836Z,35.78
2023-01-23T08:04:55.534Z,40.75
2023-01-23T08:07:22.455Z,40.10
2023-01-23T08:09:49.194Z,37.78
2023-01-23T08:12:15.845Z,39.97
2023-01-23T08:14:42.728Z,34.13
2023-01-23T08:17:09.416Z,34.50
2023-01-23T08:19:36.108Z,33.47
2023-01-23T08:22:02.894Z,37.03
2023-01-23T08:24:29.629Z,37.10
2023-01-23T08:26:56.631Z,42.50
2023-01-23T08:29:23.795Z,44.95
2023-01-23T08:31:54.956Z,41.30
2023-01-23T08:34:24.193Z,47.50
2023-01-23T08:36:51.501Z,43.67
2023-01-23T08:39:20.067Z,44.80
2023-01-23T08:41:47.296Z,48.13
2023-01-23T08:44:14.255Z,43.60
2023-01-23T08:46:41.230Z,47.20
2023-01-23T08:49:09.331Z,41.95
2023-01-23T08:51:38.032Z,46.53
2023-01-23T08:54:06.200Z,44.35
2023-01-23T08:56:32.879Z,39.95
2023-01-23T08:58:59.534Z,40.17
2023-01-23T09:01:27.790Z,39.83
2023-01-23T09:03:56.829Z,40.17
2023-01-23T09:06:23.960Z,50.22
2023-01-23T09:08:50.909Z,46.97
2023-01-23T09:11:20.404Z,39.30
2023-01-23T09:13:47.519Z,38.67
2023-01-23T09:16:15.127Z,44.20
2023-01-23T09:18:41.853Z,45.85
2023-01-23T09:21:11.890Z,41.17
2023-01-23T09:23:39.171Z,42.33
2023-01-23T09:26:08.903Z,47.30
2023-01-23T09:28:36.736Z,50.67
2023-01-23T09:31:08.905Z,54.58
2023-01-23T09:33:36.585Z,53.33
2023-01-23T09:36:04.509Z,46.47
2023-01-23T09:38:33.383Z,45.80
2023-01-23T09:41:07.053Z,45.67
2023-01-23T09:43:42.793Z,47.78
2023-01-23T09:46:43.639Z,44.70
2023-01-23T09:52:00.673Z,51.53
2023-01-23T09:54:30.142Z,51.00
2023-01-23T09:57:00.558Z,54.25
2023-01-23T09:59:50.174Z,46.58
2023-01-23T10:02:25.172Z,49.28
2023-01-23T10:04:54.093Z,50.05
2023-01-23T10:07:54.932Z,51.35
2023-01-23T10:13:16.914Z,46.00
2023-01-23T10:16:05.158Z,50.45
2023-01-23T10:18:38.403Z,51.55
2023-01-23T10:21:23.727Z,55.38
2023-01-23T10:24:11.942Z,58.95
2023-01-23T10:26:45.200Z,56.80
2023-01-23T10:29:39.707Z,57.30
2023-01-23T10:32:23.378Z,60.78
2023-01-23T10:35:09.926Z,55.38
2023-01-23T10:37:52.659Z,54.22
2023-01-23T10:40:41.480Z,56.22
2023-01-23T10:43:21.760Z,57.00
2023-01-23T10:45:49.673Z,52.45
2023-01-23T10:48:35.358Z,50.38
2023-01-23T10:51:03.492Z,49.30
2023-01-23T10:53:30.202Z,46.65
2023-01-23T10:56:00.756Z,49.33
2023-01-23T10:58:41.069Z,44.70
2023-01-23T11:01:27.976Z,44.45
2023-01-23T11:03:54.776Z,46.65
2023-01-23T11:06:25.887Z,45.25
2023-01-23T11:08:58.192Z,47.40
2023-01-23T11:11:30.505Z,40.65
2023-01-23T11:14:13.998Z,40.47
2023-01-23T11:16:41.155Z,37.28
2023-01-23T11:19:07.818Z,38.80
2023-01-23T11:21:37.548Z,44.88
2023-01-23T11:24:27.833Z,45.57
2023-01-23T11:27:17.911Z,41.20
2023-01-23T11:30:16.534Z,41.13
2023-01-23T11:33:12.849Z,41.05
2023-01-23T11:36:06.500Z,42.30
2023-01-23T11:38:56.758Z,43.90
2023-01-23T11:41:31.501Z,46.92
2023-01-23T11:43:58.298Z,46.92
2023-01-23T11:46:31.955Z,43.67
2023-01-23T11:49:21.246Z,44.90
2023-01-23T11:52:08.175Z,46.85
2023-01-23T11:54:48.161Z,45.20
2023-01-23T11:57:22.694Z,41.05
2023-01-23T12:00:27.075Z,42.03
2023-01-23T12:03:15.368Z,42.58
2023-01-23T12:06:18.697Z,37.15
2023-01-23T12:09:10.309Z,43.15
2023-01-23T12:14:27.700Z,37.63
2023-01-23T12:16:59.979Z,39.83
2023-01-23T12:19:45.310Z,36.67
2023-01-23T12:22:49.861Z,39.42
2023-01-23T12:25:35.109Z,41.47
2023-01-23T12:28:25.423Z,40.25
2023-01-23T12:31:15.427Z,37.38
2023-01-23T12:34:15.221Z,39.58
2023-01-23T12:37:19.454Z,42.78
2023-01-23T12:40:18.273Z,38.83
2023-01-23T12:42:53.577Z,42.70
2023-01-23T12:45:27.075Z,42.33
2023-01-23T12:47:57.155Z,44.22
2023-01-23T12:50:46.236Z,39.08
2023-01-23T12:53:18.662Z,44.28
2023-01-23T12:55:55.497Z,44.33
2023-01-23T12:58:23.549Z,42.92
2023-01-23T13:01:38.109Z,40.35
2023-01-23T13:04:17.059Z,41.95
2023-01-23T13:06:47.447Z,46.90
2023-01-23T13:09:58.243Z,39.08
2023-01-23T13:12:27.229Z,40.03
2023-01-23T13:15:14.810Z,39.95
2023-01-23T13:17:50.310Z,40.58
2023-01-23T13:20:46.408Z,37.85
2023-01-23T13:23:29.929Z,37.67
2023-01-23T13:26:22.971Z,32.90
2023-01-23T13:28:57.581Z,37.03
2023-01-23T13:31:42.561Z,33.28
2023-01-23T13:34:18.146Z,37.78
2023-01-23T13:36:46.234Z,39.75
2023-01-23T14:28:01.407Z,41.22
2023-01-23T14:31:02.583Z,53.05
2023-01-23T14:41:41.277Z,49.55
2023-01-23T14:53:00.968Z,41.85
2023-01-23T14:56:23.591Z,46.00
2023-01-23T15:04:10.967Z,41.70
2023-01-23T15:14:34.752Z,51.25
2023-01-23T15:17:07.404Z,54.35
2023-01-23T15:19:37.703Z,53.10
2023-01-23T15:22:25.267Z,50.85
2023-01-23T15:24:52.210Z,58.00
2023-01-23T15:27:37.069Z,56.35
2023-01-23T15:30:31.300Z,62.17
2023-01-23T15:32:58.837Z,56.83
2023-01-23T15:35:26.208Z,66.38
2023-01-23T15:37:59.635Z,61.40
2023-01-23T15:40:28.163Z,57.95
2023-01-23T15:43:12.529Z,65.70
2023-01-23T15:45:39.470Z,63.65
2023-01-23T15:48:06.588Z,70.45
2023-01-23T15:50:33.476Z,76.20
2023-01-23T15:53:00.311Z,65.63
2023-01-23T15:55:28.947Z,65.68
2023-01-23T15:57:56.383Z,68.57
2023-01-23T16:00:27.071Z,59.67
2023-01-23T16:05:27.241Z,58.78
2023-01-23T16:07:55.316Z,68.75
2023-01-23T16:10:28.367Z,57.15
2023-01-23T16:12:57.529Z,59.83
2023-01-23T16:15:27.603Z,58.72
2023-01-23T16:17:55.202Z,49.97
2023-01-23T16:20:38.259Z,59.15
2023-01-23T16:23:15.188Z,58.10
2023-01-23T16:25:45.043Z,65.78
2023-01-23T16:28:19.998Z,63.13
2023-01-23T16:30:47.601Z,59.15
2023-01-23T16:33:14.770Z,66.32
2023-01-23T16:35:42.477Z,69.78
2023-01-23T16:38:27.645Z,68.32
2023-01-23T16:40:56.001Z,78.20
2023-01-23T16:43:23.667Z,66.43
2023-01-23T16:45:53.641Z,68.93
2023-01-23T16:48:27.066Z,59.13
2023-01-23T16:51:00.773Z,72.45
2023-01-23T16:53:47.800Z,66.55
2023-01-23T16:56:23.001Z,77.18
2023-01-23T16:58:50.542Z,71.55
2023-01-23T17:01:22.825Z,71.70
2023-01-23T17:04:01.664Z,68.80
2023-01-23T17:06:28.409Z,67.55
2023-01-23T17:08:56.156Z,69.68
2023-01-23T17:11:41.091Z,81.55
2023-01-23T17:14:28.470Z,69.28
2023-01-23T17:17:02.300Z,65.30
2023-01-23T17:19:36.430Z,64.93
2023-01-23T17:22:05.889Z,73.13
2023-01-23T17:24:32.682Z,67.95
2023-01-23T17:26:59.378Z,67.65
2023-01-23T17:29:26.448Z,71.68
2023-01-23T17:31:53.306Z,70.60
2023-01-23T17:34:25.573Z,76.72
2023-01-23T17:36:54.607Z,81.25
2023-01-23T17:39:21.921Z,76.72
2023-01-23T17:41:48.831Z,73.82
2023-01-23T17:44:15.629Z,82.97
2023-01-23T17:46:42.441Z,80.38
2023-01-23T17:49:30.891Z,79.25
2023-01-23T17:52:00.577Z,74.32
2023-01-23T17:54:27.492Z,74.73
2023-01-23T17:56:54.328Z,81.05
2023-01-23T17:59:21.425Z,77.47
2023-01-23T18:01:48.249Z,82.35
2023-01-23T18:04:20.357Z,72.43
2023-01-23T18:06:47.897Z,85.30
2023-01-23T18:09:15.122Z,83.95
2023-01-23T18:11:49.773Z,81.82
2023-01-23T18:14:59.872Z,80.55
2023-01-23T18:17:43.042Z,89.97
2023-01-23T18:20:18.203Z,85.35
2023-01-23T18:22:45.393Z,80.93
2023-01-23T18:25:16.671Z,90.28
2023-01-23T18:27:43.932Z,72.28
2023-01-23T18:30:23.132Z,72.13
2023-01-23T18:32:52.874Z,76.53
2023-01-23T18:35:57.417Z,82.60
2023-01-23T18:38:33.012Z,75.03
2023-01-23T18:41:12.382Z,76.47
2023-01-23T18:43:43.719Z,79.47
2023-01-23T18:46:13.393Z,74.85
2023-01-23T18:48:41.917Z,80.73
2023-01-23T18:51:20.963Z,76.45
2023-01-23T18:53:56.383Z,87.18
2023-01-23T18:56:23.173Z,81.47
2023-01-23T18:59:12.071Z,79.18
2023-01-23T19:01:53.490Z,79.60
2023-01-23T19:04:32.983Z,85.30
2023-01-23T19:07:00.218Z,90.88
2023-01-23T19:09:28.065Z,84.60
2023-01-23T19:12:31.565Z,87.95
2023-01-23T19:21:33.394Z,88.75
2023-01-23T19:24:07.433Z,94.32
2023-01-23T19:26:36.709Z,90.85
2023-01-23T19:29:19.917Z,89.10
2023-01-23T19:32:03.071Z,98.90
2023-01-23T19:34:30.663Z,89.32
2023-01-23T19:36:59.707Z,93.47
2023-01-23T19:39:26.380Z,94.60
2023-01-23T19:41:58.703Z,94.63
2023-01-23T19:44:58.241Z,93.60
2023-01-23T19:48:09.898Z,90.13
2023-01-23T19:51:14.568Z,93.63
2023-01-23T19:57:22.305Z,90.28
2023-01-23T20:00:54.003Z,90.72
2023-01-23T20:17:43.239Z,79.07
2023-01-23T20:20:11.583Z,83.18
2023-01-23T20:22:40.205Z,78.88
2023-01-23T20:25:09.773Z,76.95
2023-01-23T20:27:37.364Z,85.05
2023-01-23T20:30:14.157Z,77.03
2023-01-23T20:32:41.179Z,79.85
2023-01-23T20:35:14.953Z,81.20
2023-01-23T20:37:44.469Z,80.75
2023-01-23T20:40:15.419Z,84.72
2023-01-23T20:42:44.126Z,74.03
2023-01-23T20:45:12.699Z,83.63
2023-01-23T20:47:42.381Z,77.60
2023-01-23T20:50:09.925Z,78.43
2023-01-23T20:52:56.151Z,82.05
2023-01-23T20:55:26.584Z,74.45
2023-01-23T20:58:29.383Z,72.43
2023-01-23T21:01:05.527Z,79.00
2023-01-23T21:03:32.931Z,72.35
2023-01-23T21:05:59.744Z,72.53
2023-01-23T21:08:26.595Z,70.45
2023-01-23T21:10:54.191Z,67.32
2023-01-23T21:13:21.330Z,76.07
2023-01-23T21:16:03.271Z,75.72
2023-01-23T21:18:30.219Z,69.65
2023-01-23T21:21:03.587Z,73.30
2023-01-23T21:23:30.401Z,72.45
2023-01-23T21:25:59.638Z,76.07
2023-01-23T21:28:28.548Z,69.55
2023-01-23T21:30:55.647Z,75.47
2023-01-23T21:33:23.062Z,64.68
2023-01-23T21:35:54.089Z,72.95
2023-01-23T21:38:22.999Z,64.55
2023-01-23T21:40:51.372Z,65.68
2023-01-23T21:43:19.397Z,71.78
2023-01-23T21:45:46.284Z,62.95
2023-01-23T21:48:13.143Z,69.47
2023-01-23T21:50:39.990Z,66.05
2023-01-23T21:53:08.557Z,63.03
2023-01-23T21:55:35.916Z,70.05
2023-01-23T21:58:02.785Z,68.28
2023-01-23T22:00:48.227Z,69.55
2023-01-23T22:03:15.116Z,70.38
2023-01-23T22:05:42.136Z,71.50
2023-01-23T22:08:08.966Z,72.72
2023-01-23T22:10:36.601Z,69.10
2023-01-23T22:13:03.323Z,76.78
2023-01-23T22:15:30.043Z,68.38
2023-01-23T22:17:56.799Z,68.65
2023-01-23T22:20:23.551Z,78.60
2023-01-23T22:22:50.272Z,67.80
2023-01-23T22:25:17.076Z,71.80
2023-01-23T22:27:43.808Z,72.65
2023-01-23T22:30:11.333Z,74.15
2023-01-23T22:32:40.509Z,64.85
2023-01-23T22:35:09.481Z,74.43
2023-01-23T22:37:36.414Z,75.68
2023-01-23T22:40:03.350Z,69.63
2023-01-23T22:42:30.127Z,80.95
2023-01-23T22:44:57.962Z,66.65
2023-01-23T22:47:24.692Z,76.88
2023-01-23T22:49:51.425Z,67.32
2023-01-23T22:52:18.198Z,80.18
2023-01-23T22:54:44.911Z,69.97
2023-01-23T22:57:11.789Z,70.75
2023-01-23T22:59:38.636Z,71.65
2023-01-23T23:02:05.387Z,74.60
2023-01-23T23:04:32.249Z,64.78
2023-01-23T23:06:58.931Z,75.72
2023-01-23T23:09:25.657Z,67.35
2023-01-23T23:11:52.789Z,69.80
2023-01-23T23:14:19.613Z,68.65
2023-01-23T23:16:46.466Z,77.55
2023-01-23T23:19:13.368Z,69.75
2023-01-23T23:21:40.072Z,76.05
2023-01-23T23:24:08.461Z,72.50
2023-01-23T23:26:35.550Z,69.80
2023-01-23T23:29:02.809Z,62.83
2023-01-23T23:31:30.212Z,63.92
2023-01-23T23:33:57.372Z,68.63
2023-01-23T23:36:24.395Z,67.30
2023-01-23T23:38:51.127Z,65.47
2023-01-23T23:41:19.474Z,64.82
2023-01-23T23:43:46.423Z,68.72
2023-01-23T23:46:14.112Z,63.25
2023-01-23T23:48:41.616Z,64.97
2023-01-23T23:51:11.401Z,61.78
2023-01-23T23:53:38.150Z,67.13
2023-01-23T23:56:06.139Z,71.28
2023-01-23T23:58:35.803Z,66.32
